createdAt,value
2018-08-24T04:03:30.729Z,9.97
2018-08-24T04:06:03.069Z,9.80
2018-08-24T04:08:42.188Z,6.77
2018-08-24T04:11:14.601Z,7.33
2018-08-24T04:13:47.012Z,7.37
2018-08-24T04:16:19.422Z,8.73
2018-08-24T04:18:51.776Z,7.20
2018-08-24T04:21:24.173Z,7.43
2018-08-24T04:23:56.558Z,7.10
2018-08-24T04:26:28.917Z,8.70
2018-08-24T04:29:01.275Z,7.93
2018-08-24T04:31:33.662Z,8.23
2018-08-24T04:34:05.998Z,10.53
2018-08-24T04:36:38.308Z,9.17
2018-08-24T04:39:10.632Z,12.93
2018-08-24T04:41:42.956Z,10.63
2018-08-24T04:44:15.281Z,13.77
2018-08-24T04:46:47.576Z,8.50
2018-08-24T04:49:19.920Z,7.97
2018-08-24T04:51:52.272Z,9.53
2018-08-24T04:54:31.234Z,7.87
2018-08-24T04:57:03.561Z,13.60
2018-08-24T04:59:35.891Z,9.70
2018-08-24T05:02:08.989Z,10.70
2018-08-24T05:04:41.311Z,11.90
2018-08-24T05:07:13.649Z,11.67
2018-08-24T05:09:45.972Z,12.13
2018-08-24T05:12:18.331Z,12.90
2018-08-24T05:14:50.664Z,8.97
2018-08-24T05:17:22.993Z,14.27
2018-08-24T05:19:55.322Z,8.93
2018-08-24T05:22:27.645Z,9.27
2018-08-24T05:24:59.972Z,13.20
2018-08-24T05:27:32.288Z,15.07
2018-08-24T05:30:04.917Z,13.93
2018-08-24T05:32:37.233Z,11.40
2018-08-24T05:35:09.560Z,11.77
2018-08-24T05:37:41.888Z,13.00
2018-08-24T05:40:14.203Z,12.17
2018-08-24T05:42:46.529Z,13.07
2018-08-24T05:45:19.108Z,15.90
2018-08-24T05:47:51.437Z,15.93
2018-08-24T05:50:23.773Z,14.83
2018-08-24T05:52:56.088Z,14.80
2018-08-24T05:55:28.478Z,13.03
2018-08-24T05:58:00.755Z,16.57
2018-08-24T06:00:33.085Z,16.50
2018-08-24T06:03:05.581Z,14.50
2018-08-24T06:05:37.914Z,14.27
2018-08-24T06:08:10.236Z,14.00
2018-08-24T06:10:43.373Z,17.17
2018-08-24T06:13:15.789Z,13.83
2018-08-24T06:15:48.157Z,18.27
2018-08-24T06:18:20.449Z,21.20
2018-08-24T06:20:53.024Z,11.17
2018-08-24T06:23:25.338Z,18.40
2018-08-24T06:25:57.657Z,13.80
2018-08-24T06:28:29.973Z,13.97
2018-08-24T06:31:02.296Z,17.50
2018-08-24T06:33:34.621Z,14.47
2018-08-24T06:36:06.948Z,13.27
2018-08-24T06:38:39.272Z,16.30
2018-08-24T06:41:11.601Z,13.80
2018-08-24T06:43:43.924Z,16.03
2018-08-24T06:46:16.252Z,14.37
2018-08-24T06:48:48.573Z,17.10
2018-08-24T06:51:20.905Z,14.40
2018-08-24T06:53:53.257Z,12.70
2018-08-24T06:56:25.548Z,10.87
2018-08-24T06:58:57.860Z,12.67
2018-08-24T07:01:30.156Z,11.97
2018-08-24T07:04:02.476Z,13.50
2018-08-24T07:06:34.780Z,13.33
2018-08-24T07:09:07.416Z,10.60
2018-08-24T07:11:39.737Z,13.17
2018-08-24T07:14:12.057Z,12.60
2018-08-24T07:16:44.358Z,14.33
2018-08-24T07:19:16.676Z,15.13
2018-08-24T07:21:48.994Z,14.67
2018-08-24T07:24:21.324Z,14.47
2018-08-24T07:26:53.653Z,15.07
2018-08-24T07:29:25.973Z,16.73
2018-08-24T07:31:59.273Z,16.80
2018-08-24T07:34:31.612Z,17.70
2018-08-24T07:37:04.240Z,16.40
2018-08-24T07:39:36.572Z,15.20
2018-08-24T07:42:08.909Z,17.40
2018-08-24T07:44:41.242Z,14.43
2018-08-24T07:47:13.542Z,17.20
2018-08-24T07:49:45.855Z,17.57
2018-08-24T07:52:18.165Z,18.17
2018-08-24T07:54:50.768Z,18.60
2018-08-24T07:57:23.084Z,19.33
2018-08-24T07:59:55.421Z,13.90
2018-08-24T08:02:27.768Z,17.30
2018-08-24T08:05:00.104Z,13.53
2018-08-24T08:07:32.431Z,14.60
2018-08-24T08:10:05.601Z,13.17
2018-08-24T08:12:37.957Z,16.23
2018-08-24T08:15:10.262Z,16.20
2018-08-24T08:17:42.609Z,19.80
2018-08-24T08:20:14.961Z,14.57
2018-08-24T08:22:47.293Z,12.53
2018-08-24T08:25:19.620Z,15.37
2018-08-24T08:27:51.944Z,18.27
2018-08-24T08:30:24.285Z,14.17
2018-08-24T08:32:56.637Z,18.33
2018-08-24T08:35:28.982Z,12.03
2018-08-24T08:38:01.309Z,12.33
2018-08-24T08:40:33.631Z,15.37
2018-08-24T08:43:05.963Z,14.43
2018-08-24T08:45:38.289Z,18.30
2018-08-24T08:48:10.624Z,15.10
2018-08-24T08:50:42.985Z,14.63
2018-08-24T08:53:15.308Z,13.50
2018-08-24T08:55:48.396Z,14.27
2018-08-24T08:58:20.817Z,14.10
2018-08-24T09:00:53.397Z,14.30
2018-08-24T09:03:25.972Z,16.17
2018-08-24T09:05:58.342Z,13.23
2018-08-24T09:08:30.626Z,10.80
2018-08-24T09:11:02.961Z,17.77
2018-08-24T09:13:35.322Z,16.20
2018-08-24T09:16:07.652Z,17.90
2018-08-24T09:18:40.155Z,14.13
2018-08-24T09:21:12.612Z,12.07
2018-08-24T09:23:44.973Z,18.07
2018-08-24T09:26:17.305Z,14.20
2018-08-24T09:28:49.780Z,13.10
2018-08-24T09:31:22.119Z,12.30
2018-08-24T09:33:54.446Z,13.87
2018-08-24T09:36:26.764Z,16.17
2018-08-24T09:38:59.084Z,12.53
2018-08-24T09:41:31.417Z,13.63
2018-08-24T09:44:03.736Z,9.30
2018-08-24T09:46:36.139Z,12.00
2018-08-24T09:49:08.546Z,10.53
2018-08-24T09:51:40.851Z,11.03
2018-08-24T09:54:13.199Z,10.13
2018-08-24T09:56:45.519Z,10.03
2018-08-24T09:59:17.818Z,10.27
2018-08-24T10:01:50.128Z,11.30
2018-08-24T10:04:22.567Z,9.47
2018-08-24T10:06:54.878Z,10.13
2018-08-24T10:09:27.184Z,10.87
2018-08-24T10:11:59.504Z,11.13
2018-08-24T10:14:31.806Z,8.33
2018-08-24T10:17:04.125Z,8.77
2018-08-24T10:19:36.432Z,8.10
2018-08-24T10:22:08.752Z,10.90
2018-08-24T10:24:41.076Z,8.80
2018-08-24T10:27:13.380Z,5.78
2018-08-24T10:29:45.727Z,7.42
2018-08-24T10:32:18.013Z,6.67
2018-08-24T10:34:50.347Z,8.48
2018-08-24T10:37:22.643Z,11.75
2018-08-24T10:39:55.289Z,7.73
2018-08-24T10:42:27.601Z,7.53
2018-08-24T10:44:59.908Z,9.47
2018-08-24T10:47:32.744Z,8.20
2018-08-24T10:50:05.344Z,9.83
2018-08-24T10:52:37.745Z,4.83
2018-08-24T10:55:10.385Z,5.30
2018-08-24T10:57:42.700Z,6.83
2018-08-24T11:00:15.005Z,9.50
2018-08-24T11:02:47.308Z,6.87
2018-08-24T11:05:19.642Z,10.63
2018-08-24T11:07:51.993Z,5.07
2018-08-24T11:10:24.219Z,6.17
2018-08-24T11:12:56.534Z,6.30
2018-08-24T11:15:28.827Z,8.30
2018-08-24T11:18:01.138Z,5.33
2018-08-24T11:20:33.768Z,7.10
2018-08-24T11:23:06.251Z,7.93
2018-08-24T11:25:38.493Z,7.33
2018-08-24T11:28:10.792Z,9.23
2018-08-24T11:30:43.089Z,6.13
2018-08-24T11:33:15.409Z,7.70
2018-08-24T11:35:47.719Z,5.17
2018-08-24T11:38:20.019Z,6.67
2018-08-24T11:40:52.308Z,6.83
2018-08-24T11:43:24.609Z,5.50
2018-08-24T11:45:56.909Z,7.37
2018-08-24T11:48:29.213Z,6.30
2018-08-24T11:51:01.512Z,4.67
2018-08-24T11:53:33.823Z,6.90
2018-08-24T11:56:06.125Z,9.93
2018-08-24T11:58:38.708Z,7.83
2018-08-24T12:01:11.015Z,5.53
2018-08-24T12:03:43.353Z,4.93
2018-08-24T12:06:15.637Z,10.60
2018-08-24T12:08:47.960Z,8.13
2018-08-24T12:11:20.282Z,6.12
2018-08-24T12:13:52.660Z,5.63
2018-08-24T12:16:24.888Z,4.90
2018-08-24T12:18:57.381Z,4.63
2018-08-24T12:21:29.815Z,3.07
2018-08-24T12:24:02.084Z,4.97
2018-08-24T12:26:34.684Z,3.77
2018-08-24T12:29:06.989Z,7.20
2018-08-24T12:31:39.409Z,4.40
2018-08-24T12:34:11.709Z,4.07
2018-08-24T12:36:43.997Z,4.77
2018-08-24T12:39:16.309Z,4.77
2018-08-24T12:41:48.609Z,8.78
2018-08-24T12:44:20.916Z,6.23
2018-08-24T12:46:53.208Z,5.23
2018-08-24T12:49:25.587Z,1.93
2018-08-24T12:51:57.839Z,5.30
2018-08-24T12:54:30.145Z,5.67
2018-08-24T12:57:02.541Z,4.28
2018-08-24T12:59:34.871Z,7.40
2018-08-24T13:02:07.216Z,6.57
2018-08-24T13:04:39.532Z,4.30
2018-08-24T13:07:11.857Z,4.27
2018-08-24T13:09:44.189Z,3.00
2018-08-24T13:12:16.944Z,3.03
2018-08-24T13:14:49.293Z,4.80
2018-08-24T13:17:21.608Z,5.70
2018-08-24T13:19:53.937Z,3.30
2018-08-24T13:22:26.260Z,7.00
2018-08-24T13:24:58.577Z,2.87
2018-08-24T13:27:30.897Z,4.47
2018-08-24T13:30:03.227Z,5.83
2018-08-24T13:32:35.549Z,5.62
2018-08-24T13:35:07.676Z,5.78
2018-08-24T13:37:39.985Z,2.57
2018-08-24T13:40:12.400Z,6.43
2018-08-24T13:42:44.722Z,5.30
2018-08-24T13:45:17.050Z,3.20
2018-08-24T13:47:49.396Z,5.83
2018-08-24T13:50:21.714Z,5.25
2018-08-24T13:52:54.056Z,2.70
2018-08-24T13:55:26.388Z,2.80
2018-08-24T13:57:58.714Z,3.03
2018-08-24T14:00:31.028Z,4.53
2018-08-24T14:03:03.365Z,5.30
2018-08-24T14:05:35.685Z,4.57
2018-08-24T14:08:08.028Z,6.00
2018-08-24T14:10:40.333Z,6.17
2018-08-24T14:13:12.769Z,5.17
2018-08-24T14:15:44.973Z,4.40
2018-08-24T14:18:17.291Z,4.67
2018-08-24T14:20:49.618Z,7.67
2018-08-24T14:23:21.939Z,4.53
2018-08-24T14:25:54.104Z,6.70
2018-08-24T14:28:26.424Z,2.73
2018-08-24T14:30:58.732Z,4.50
2018-08-24T14:33:31.046Z,3.97
2018-08-24T14:36:03.357Z,5.43
2018-08-24T14:38:35.677Z,2.73
2018-08-24T14:41:08.341Z,7.60
2018-08-24T14:43:40.665Z,4.47
2018-08-24T14:46:12.983Z,2.20
2018-08-24T14:48:45.297Z,4.03
2018-08-24T14:51:17.619Z,7.47
2018-08-24T14:53:49.942Z,4.47
2018-08-24T14:56:22.244Z,4.93
2018-08-24T14:58:54.568Z,4.83
2018-08-24T15:01:26.942Z,6.80
2018-08-24T15:03:59.280Z,6.07
2018-08-24T15:06:31.601Z,4.00
2018-08-24T15:09:06.802Z,3.70
2018-08-24T15:11:39.121Z,2.70
2018-08-24T15:14:11.456Z,3.93
2018-08-24T15:16:43.777Z,4.03
2018-08-24T15:19:16.091Z,4.53
2018-08-24T15:21:48.420Z,6.73
2018-08-24T15:24:20.797Z,2.97
2018-08-24T15:26:53.194Z,4.50
2018-08-24T15:29:25.510Z,3.97
2018-08-24T15:31:57.812Z,3.20
2018-08-24T15:34:30.140Z,3.97
2018-08-24T15:37:02.448Z,3.90
2018-08-24T15:39:34.772Z,3.43
2018-08-24T15:42:07.089Z,4.77
2018-08-24T15:44:39.414Z,3.13
2018-08-24T15:47:11.727Z,3.67
2018-08-24T15:49:44.048Z,4.23
2018-08-24T15:52:16.362Z,5.20
2018-08-24T15:54:48.689Z,7.33
2018-08-24T15:57:20.981Z,5.93
2018-08-24T15:59:53.289Z,7.80
2018-08-24T16:02:25.580Z,3.93
2018-08-24T16:04:57.884Z,5.83
2018-08-24T16:07:30.190Z,5.73
2018-08-24T16:10:02.488Z,3.20
2018-08-24T16:12:34.790Z,7.07
2018-08-24T16:15:07.400Z,5.57
2018-08-24T16:17:39.937Z,6.80
2018-08-24T16:20:12.240Z,2.80
2018-08-24T16:22:44.545Z,4.00
2018-08-24T16:25:16.896Z,4.60
2018-08-24T16:27:49.169Z,3.33
2018-08-24T16:30:21.537Z,4.13
2018-08-24T16:32:53.781Z,5.80
2018-08-24T16:35:26.091Z,5.10
2018-08-24T16:37:58.385Z,7.47
2018-08-24T16:40:30.697Z,5.67
2018-08-24T16:43:02.998Z,5.07
2018-08-24T16:45:35.317Z,6.03
2018-08-24T16:48:07.629Z,4.50
2018-08-24T16:50:39.939Z,4.37
2018-08-24T16:53:12.252Z,6.23
2018-08-24T16:55:44.637Z,3.87
2018-08-24T16:58:16.951Z,4.97
2018-08-24T17:00:49.277Z,4.73
2018-08-24T17:03:21.602Z,9.93
2018-08-24T17:05:53.933Z,4.20
2018-08-24T17:08:26.305Z,6.63
2018-08-24T17:10:58.620Z,3.67
2018-08-24T17:13:30.937Z,4.53
2018-08-24T17:16:03.265Z,6.10
2018-08-24T17:18:35.584Z,8.07
2018-08-24T17:21:07.924Z,8.63
2018-08-24T17:23:40.249Z,5.90
2018-08-24T17:26:12.581Z,5.77
2018-08-24T17:28:44.966Z,6.00
2018-08-24T17:31:17.551Z,5.73
2018-08-24T17:33:49.877Z,5.30
2018-08-24T17:36:22.209Z,7.23
2018-08-24T17:38:54.520Z,5.43
2018-08-24T17:41:26.843Z,7.80
2018-08-24T17:43:59.189Z,6.37
2018-08-24T17:46:31.517Z,6.37
2018-08-24T17:49:03.844Z,5.10
2018-08-24T17:51:36.163Z,4.37
2018-08-24T17:54:08.496Z,6.03
2018-08-24T17:56:40.855Z,5.43
2018-08-24T17:59:13.142Z,4.70
2018-08-24T18:01:45.442Z,4.80
2018-08-24T18:04:17.738Z,5.57
2018-08-24T18:06:50.043Z,4.40
2018-08-24T18:09:22.350Z,4.33
2018-08-24T18:11:54.661Z,8.47
2018-08-24T18:14:26.981Z,7.50
2018-08-24T18:16:59.289Z,8.50
2018-08-24T18:19:31.825Z,6.40
2018-08-24T18:22:04.125Z,7.20
2018-08-24T18:24:36.535Z,5.23
2018-08-24T18:27:08.836Z,5.57
2018-08-24T18:29:41.133Z,7.03
2018-08-24T18:32:13.444Z,5.17
2018-08-24T18:34:45.762Z,7.73
2018-08-24T18:37:18.090Z,7.73
2018-08-24T18:39:50.336Z,5.67
2018-08-24T18:42:22.641Z,5.67
2018-08-24T18:44:54.931Z,7.70
2018-08-24T18:47:27.244Z,7.63
2018-08-24T18:49:59.550Z,4.40
2018-08-24T18:52:31.861Z,4.60
2018-08-24T18:55:04.698Z,4.80
2018-08-24T18:57:37.021Z,8.03
2018-08-24T19:00:09.624Z,4.00
2018-08-24T19:02:42.989Z,6.90
2018-08-24T19:05:15.330Z,7.40
2018-08-24T19:07:47.625Z,4.43
2018-08-24T19:10:19.944Z,8.87
2018-08-24T19:12:52.276Z,10.73
2018-08-24T19:15:24.621Z,6.47
2018-08-24T19:17:56.951Z,5.77
2018-08-24T19:20:29.301Z,6.30
2018-08-24T19:23:01.793Z,8.30
2018-08-24T19:25:34.116Z,6.23
2018-08-24T19:28:06.444Z,7.13
2018-08-24T19:30:38.749Z,7.67
2018-08-24T19:33:11.068Z,7.27
2018-08-24T19:35:43.384Z,8.63
2018-08-24T19:38:16.029Z,7.33
2018-08-24T19:40:48.348Z,6.70
2018-08-24T19:43:20.669Z,7.70
2018-08-24T19:45:52.984Z,4.90
2018-08-24T19:48:25.312Z,9.70
2018-08-24T19:50:57.621Z,3.97
2018-08-24T19:53:29.942Z,4.37
2018-08-24T19:56:02.256Z,5.30
2018-08-24T19:58:34.556Z,5.17
2018-08-24T20:01:06.865Z,10.20
2018-08-24T20:03:39.176Z,6.93
2018-08-24T20:06:11.637Z,7.43
2018-08-24T20:08:44.212Z,5.33
2018-08-24T20:11:16.512Z,5.33
2018-08-24T20:13:48.824Z,4.53
2018-08-24T20:16:21.130Z,8.83
2018-08-24T20:18:53.433Z,5.20
2018-08-24T20:21:25.725Z,4.97
2018-08-24T20:23:58.102Z,7.13
2018-08-24T20:26:30.369Z,6.27
2018-08-24T20:29:02.651Z,4.77
2018-08-24T20:31:34.953Z,3.73
2018-08-24T20:34:07.256Z,8.57
2018-08-24T20:36:39.560Z,5.27
2018-08-24T20:39:11.864Z,6.00
2018-08-24T20:41:44.168Z,6.47
2018-08-24T20:44:16.484Z,8.97
2018-08-24T20:46:48.833Z,4.33
2018-08-24T20:49:21.133Z,6.53
2018-08-24T20:51:53.444Z,8.40
2018-08-24T20:54:25.752Z,5.77
2018-08-24T20:56:58.063Z,7.90
2018-08-24T20:59:30.368Z,7.90
2018-08-24T21:02:02.701Z,3.97
2018-08-24T21:04:34.997Z,6.33
2018-08-24T21:07:07.305Z,4.83
2018-08-24T21:09:39.662Z,6.30
2018-08-24T21:12:11.977Z,9.43
2018-08-24T21:14:44.281Z,7.10
2018-08-24T21:17:16.586Z,11.43
2018-08-24T21:19:48.889Z,14.07
2018-08-24T21:22:21.210Z,12.07
2018-08-24T21:24:53.503Z,7.37
2018-08-24T21:27:25.816Z,6.73
2018-08-24T21:29:58.117Z,7.50
2018-08-24T21:32:30.415Z,7.13
2018-08-24T21:35:02.704Z,5.37
2018-08-24T21:37:35.008Z,11.03
2018-08-24T21:40:07.304Z,6.80
2018-08-24T21:42:39.620Z,7.83
2018-08-24T21:45:11.926Z,10.57
2018-08-24T21:47:44.220Z,8.37
2018-08-24T21:50:16.910Z,6.30
2018-08-24T21:52:49.305Z,7.63
2018-08-24T21:55:21.647Z,5.63
2018-08-24T21:57:53.986Z,6.73
2018-08-24T22:00:26.265Z,5.73
2018-08-24T22:02:58.598Z,6.77
2018-08-24T22:05:30.916Z,5.20
2018-08-24T22:08:03.243Z,6.73
2018-08-24T22:10:35.553Z,4.83
2018-08-24T22:13:07.875Z,7.70
2018-08-24T22:15:40.183Z,5.07
2018-08-24T22:18:12.500Z,3.90
2018-08-24T22:20:44.812Z,4.93
2018-08-24T22:23:17.165Z,4.40
2018-08-24T22:25:49.478Z,2.77
2018-08-24T22:28:21.792Z,3.80
2018-08-24T22:30:54.105Z,5.30
2018-08-24T22:33:26.440Z,7.93
2018-08-24T22:35:58.757Z,7.37
2018-08-24T22:38:31.088Z,7.00
2018-08-24T22:41:03.395Z,6.10
2018-08-24T22:43:35.776Z,11.90
2018-08-24T22:46:08.089Z,7.60
2018-08-24T22:48:40.416Z,5.97
2018-08-24T22:51:12.725Z,8.37
2018-08-24T22:53:45.048Z,8.70
2018-08-24T22:56:17.367Z,5.83
2018-08-24T22:58:49.800Z,6.23
2018-08-24T23:01:22.392Z,3.07
2018-08-24T23:03:54.716Z,5.37
2018-08-24T23:06:27.064Z,5.30
2018-08-24T23:08:59.392Z,7.13
2018-08-24T23:11:31.801Z,7.27
2018-08-24T23:14:04.157Z,6.83
2018-08-24T23:16:36.480Z,3.70
2018-08-24T23:19:08.820Z,6.80
2018-08-24T23:21:41.337Z,4.73
2018-08-24T23:24:13.712Z,6.60
2018-08-24T23:26:46.028Z,3.00
2018-08-24T23:29:18.376Z,8.40
2018-08-24T23:31:50.713Z,4.47
2018-08-24T23:34:23.040Z,7.67
2018-08-24T23:36:55.373Z,8.33
2018-08-24T23:39:27.701Z,5.60
2018-08-24T23:42:00.321Z,6.70
2018-08-24T23:44:32.752Z,5.67
2018-08-24T23:47:05.153Z,8.73
2018-08-24T23:49:37.521Z,5.67
2018-08-24T23:52:09.845Z,5.67
2018-08-24T23:54:42.177Z,5.47
2018-08-24T23:57:14.769Z,5.50
2018-08-24T23:59:48.097Z,5.57
